Airfield :
LOGIN :

Register | Disclaimer

   EN    FR    IT 

 










Legend :    VFR   Marginal VFR   IFR   Intensive IFR   Very Intensive IFR
Visi :
Ceiling :
>= 8 km
>= 3000ft
5 to 8 km
1000 to 3000 ft
1500m to 5 km
500 to 1000 ft
800 to 1500m
200 to 500 ft
< 800m
< 200 ft
Symbols :   Thunderstorms  Fog  Heavy snow  Heavy precipitations  Wind > 20 kt
SIGMETs :     Misc.  Thunderstorms  Icing  Turbulence  Mountain Waves  Volcanic Ashes







- Airport Elevation : 650 ft
- IATA code : ZJI


LSZL - Locarno

CURRENT METAR :
  • 190850Z VRB02KT 6000 RA SCT005 BKN015 OVC025 04/02 Q1010 RMK WHT

EXPIRED METARs :
  • 190820Z 00000KT 4000 RA FEW010 BKN015 OVC025 04/03 Q1010 RMK GRN
  • 190750Z VRB02KT 4000 -RA BR FEW010 BKN025 OVC030 04/03 Q1010 RMK GRN
  • 190720Z 09004KT 050V130 5000 -RA BR FEW010 SCT020 OVC035 04/03 Q1010 RMK WHT
  • 190650Z VRB02KT 5000 -RA FEW010 SCT035 OVC040 04/03 Q1010 RMK WHT
  • 190620Z 07002KT 7000 -RA FEW020 SCT040 OVC055 03/03 Q1010 RMK WHT
  • 190550Z AUTO VRB02KT 8000NDV -RA FEW040 SCT055 03/02 Q1010 RMK

TAF TAF LSZL
Valid from the 19 at 06:00 until the 19 at 15:00 UTC


190525Z 1906/1915 VRB03KT 8000 -RA FEW032 BKN035
TEMPO 1906/1915 4000 RA BKN014
PROB30
TEMPO 1908/1915 2500 RASN BKN009
No reported NOTAMs for that airfield.



MET'MAP, your aeronautical weather chart ! - Copyright ORBIFLY December 2007 - Disclaimer

ORBIFLY MET'MAP TEAM :

Programming & Development : Alexandra Zaïnal
Concept & Development : Baudouin d'Aumeries
Co-Development & Prog : Marc-Olivier Méhu
Technical & hardware support : Manuel Goepfert

Contact : metmap@orbifly.com




SOURCES & CREDITS :

   NOAA